createdAt,value
2018-09-25T00:01:45.898Z,6.11
2018-09-25T00:04:20.362Z,6.06
2018-09-25T00:06:54.205Z,6.02
2018-09-25T00:09:28.696Z,5.99
2018-09-25T00:12:02.560Z,5.89
2018-09-25T00:14:36.596Z,5.87
2018-09-25T00:17:10.595Z,5.82
2018-09-25T00:19:44.659Z,5.79
2018-09-25T00:22:19.399Z,5.73
2018-09-25T00:24:53.617Z,5.69
2018-09-25T00:27:28.019Z,5.66
2018-09-25T00:30:01.876Z,5.60
2018-09-25T00:32:43.536Z,5.56
2018-09-25T00:35:17.450Z,5.53
2018-09-25T00:37:51.403Z,5.46
2018-09-25T00:40:25.330Z,5.50
2018-09-25T00:42:59.494Z,5.48
2018-09-25T00:45:34.007Z,5.48
2018-09-25T00:48:07.903Z,5.48
2018-09-25T00:50:41.859Z,5.42
2018-09-25T00:53:16.647Z,5.42
2018-09-25T00:55:50.495Z,5.40
2018-09-25T00:58:26.551Z,5.33
2018-09-25T01:01:01.144Z,5.31
2018-09-25T01:03:35.176Z,5.31
2018-09-25T01:06:09.802Z,5.25
2018-09-25T01:08:45.171Z,5.27
2018-09-25T01:11:19.102Z,5.25
2018-09-25T01:13:53.303Z,5.23
2018-09-25T01:16:27.261Z,5.20
2018-09-25T01:19:02.237Z,5.17
2018-09-25T01:21:36.651Z,5.14
2018-09-25T01:24:10.438Z,5.09
2018-09-25T01:26:44.915Z,5.05
2018-09-25T01:29:18.695Z,5.00
2018-09-25T01:31:53.517Z,4.97
2018-09-25T01:34:28.508Z,4.90
2018-09-25T01:37:02.319Z,4.85
2018-09-25T01:39:36.433Z,4.80
2018-09-25T01:42:10.385Z,4.78
2018-09-25T01:44:45.317Z,4.73
2018-09-25T01:47:19.456Z,4.71
2018-09-25T01:49:53.669Z,4.68
2018-09-25T01:52:27.963Z,4.60
2018-09-25T01:55:01.903Z,4.54
2018-09-25T01:57:36.406Z,4.50
2018-09-25T02:00:11.496Z,4.43
2018-09-25T02:02:45.454Z,4.39
2018-09-25T02:05:20.589Z,4.34
2018-09-25T02:07:54.539Z,4.27
2018-09-25T02:10:29.840Z,4.22
2018-09-25T02:13:03.792Z,4.18
2018-09-25T02:15:37.671Z,4.15
2018-09-25T02:18:11.708Z,4.10
2018-09-25T02:20:45.694Z,4.06
2018-09-25T02:23:19.603Z,4.00
2018-09-25T02:25:54.913Z,3.98
2018-09-25T02:28:29.468Z,3.93
2018-09-25T02:31:03.364Z,3.89
2018-09-25T02:33:37.888Z,3.86
2018-09-25T02:36:12.085Z,3.82
2018-09-25T02:38:46.028Z,3.80
2018-09-25T02:41:19.860Z,3.73
2018-09-25T02:43:54.592Z,3.71
2018-09-25T02:46:28.413Z,3.65
2018-09-25T02:49:02.317Z,3.59
2018-09-25T02:51:36.384Z,3.54
2018-09-25T02:54:11.659Z,3.48
2018-09-25T02:56:45.606Z,3.35
2018-09-25T02:59:19.796Z,3.38
2018-09-25T03:01:54.426Z,3.35
2018-09-25T03:04:28.503Z,3.33
2018-09-25T03:07:02.541Z,3.33
2018-09-25T03:09:37.166Z,3.33
2018-09-25T03:12:11.578Z,3.31
2018-09-25T03:14:45.539Z,3.28
2018-09-25T03:17:19.352Z,3.24
2018-09-25T03:19:53.521Z,3.21
2018-09-25T03:22:27.641Z,3.18
2018-09-25T03:25:01.536Z,3.25
2018-09-25T03:27:36.756Z,3.29
2018-09-25T03:30:11.716Z,3.33
2018-09-25T03:32:45.655Z,3.38
2018-09-25T03:35:20.329Z,3.42
2018-09-25T03:37:54.512Z,3.42
2018-09-25T03:40:28.508Z,3.43
2018-09-25T03:43:02.333Z,3.42
2018-09-25T03:45:37.065Z,3.41
2018-09-25T03:48:10.948Z,3.39
2018-09-25T03:50:45.486Z,3.37
2018-09-25T03:53:20.998Z,3.37
2018-09-25T03:55:54.774Z,3.36
2018-09-25T03:58:29.072Z,3.37
2018-09-25T04:01:03.465Z,3.37
2018-09-25T04:03:37.352Z,3.38
2018-09-25T04:06:11.220Z,3.39
2018-09-25T04:08:45.907Z,3.41
2018-09-25T04:11:20.499Z,3.35
2018-09-25T04:13:55.807Z,3.44
2018-09-25T04:16:29.698Z,3.44
2018-09-25T04:19:03.646Z,3.50
2018-09-25T04:21:37.704Z,3.50
2018-09-25T04:24:12.652Z,3.49
2018-09-25T04:26:46.884Z,3.50
2018-09-25T04:29:21.428Z,3.48
2018-09-25T04:31:55.287Z,3.48
2018-09-25T04:34:29.707Z,3.50
2018-09-25T04:37:03.611Z,3.48
2018-09-25T04:39:37.648Z,3.46
2018-09-25T04:42:11.716Z,3.49
2018-09-25T04:44:45.758Z,3.46
2018-09-25T04:47:19.734Z,3.47
2018-09-25T04:49:54.372Z,3.42
2018-09-25T04:52:29.058Z,3.42
2018-09-25T04:55:03.503Z,3.34
2018-09-25T04:57:37.838Z,3.37
2018-09-25T05:00:12.329Z,3.39
2018-09-25T05:02:47.155Z,3.43
2018-09-25T05:05:20.952Z,3.46
2018-09-25T05:07:54.836Z,3.47
2018-09-25T05:10:29.803Z,3.43
2018-09-25T05:13:04.256Z,3.50
2018-09-25T05:15:38.133Z,3.54
2018-09-25T05:18:12.098Z,3.54
2018-09-25T05:20:45.984Z,3.59
2018-09-25T05:23:20.048Z,3.61
2018-09-25T05:25:55.613Z,3.62
2018-09-25T05:28:30.528Z,3.59
2018-09-25T05:31:04.479Z,3.63
2018-09-25T05:33:39.000Z,3.70
2018-09-25T05:36:13.544Z,3.78
2018-09-25T05:38:47.509Z,3.90
2018-09-25T05:41:21.427Z,3.99
2018-09-25T05:43:56.395Z,4.11
2018-09-25T05:46:30.390Z,4.24
2018-09-25T05:49:05.143Z,4.34
2018-09-25T05:51:40.179Z,4.38
2018-09-25T05:54:15.230Z,4.45
2018-09-25T05:56:49.280Z,4.52
2018-09-25T05:59:24.463Z,4.57
2018-09-25T06:01:58.280Z,4.63
2018-09-25T06:04:32.216Z,4.69
2018-09-25T06:07:06.553Z,4.68
2018-09-25T06:09:41.484Z,4.78
2018-09-25T06:12:16.072Z,4.86
2018-09-25T06:14:50.147Z,4.95
2018-09-25T06:17:24.524Z,5.04
2018-09-25T06:19:58.438Z,5.09
2018-09-25T06:22:33.229Z,5.12
2018-09-25T06:25:07.117Z,5.17
2018-09-25T06:27:41.711Z,5.18
2018-09-25T06:30:15.657Z,5.30
2018-09-25T06:32:49.705Z,5.33
2018-09-25T06:35:24.287Z,5.49
2018-09-25T06:37:58.250Z,5.58
2018-09-25T06:40:32.235Z,5.69
2018-09-25T06:43:06.320Z,5.82
2018-09-25T06:45:40.427Z,5.98
2018-09-25T06:48:14.485Z,6.14
2018-09-25T06:50:49.247Z,6.26
2018-09-25T06:53:24.744Z,6.39
2018-09-25T06:55:58.628Z,6.56
2018-09-25T06:58:33.182Z,6.68
2018-09-25T07:01:07.924Z,6.75
2018-09-25T07:03:41.857Z,6.87
2018-09-25T07:06:15.793Z,6.97
2018-09-25T07:08:49.605Z,7.08
2018-09-25T07:11:23.868Z,7.22
2018-09-25T07:13:59.560Z,7.35
2018-09-25T07:16:33.465Z,7.48
2018-09-25T07:19:07.545Z,7.65
2018-09-25T07:25:18.439Z,8.04
2018-09-25T07:31:16.806Z,8.33
2018-09-25T07:33:51.440Z,8.47
2018-09-25T07:36:25.335Z,8.56
2018-09-25T07:38:59.234Z,8.66
2018-09-25T07:41:33.137Z,8.71
2018-09-25T07:44:07.100Z,8.83
2018-09-25T07:47:43.933Z,8.98
2018-09-25T07:50:19.656Z,9.17
2018-09-25T07:52:54.400Z,9.29
2018-09-25T07:55:28.322Z,9.41
2018-09-25T07:58:02.640Z,9.55
2018-09-25T08:00:37.067Z,9.64
2018-09-25T08:03:11.143Z,9.67
2018-09-25T08:05:45.092Z,9.72
2018-09-25T08:08:19.096Z,9.74
2018-09-25T08:10:53.901Z,9.76
2018-09-25T08:13:29.296Z,9.75
2018-09-25T08:16:04.164Z,9.86
2018-09-25T08:18:38.052Z,9.96
2018-09-25T08:21:11.858Z,10.04
2018-09-25T08:23:46.083Z,10.07
2018-09-25T08:26:20.863Z,10.08
2018-09-25T08:28:55.516Z,10.12
2018-09-25T08:31:29.506Z,10.20
2018-09-25T08:34:04.199Z,10.29
2018-09-25T08:36:38.137Z,10.31
2018-09-25T08:39:14.844Z,10.41
2018-09-25T08:41:49.439Z,10.49
2018-09-25T08:44:23.852Z,10.59
2018-09-25T08:46:58.068Z,10.64
2018-09-25T08:49:33.215Z,10.71
2018-09-25T08:52:09.086Z,10.75
2018-09-25T08:54:43.251Z,10.81
2018-09-25T08:57:17.278Z,10.89
2018-09-25T08:59:52.821Z,11.04
2018-09-25T09:02:30.417Z,11.09
2018-09-25T09:05:04.903Z,11.14
2018-09-25T09:07:38.758Z,11.22
2018-09-25T09:10:13.559Z,11.29
2018-09-25T09:15:39.325Z,11.31
2018-09-25T09:18:13.400Z,11.32
2018-09-25T09:20:47.450Z,11.33
2018-09-25T09:23:21.319Z,11.31
2018-09-25T09:25:56.248Z,11.39
2018-09-25T09:28:31.051Z,11.42
2018-09-25T09:31:05.007Z,11.45
2018-09-25T09:33:40.104Z,11.53
2018-09-25T09:36:14.157Z,11.60
2018-09-25T09:38:48.537Z,11.67
2018-09-25T09:41:22.742Z,11.72
2018-09-25T09:43:58.096Z,11.69
2018-09-25T09:46:32.869Z,11.81
2018-09-25T09:49:07.663Z,11.87
2018-09-25T09:51:42.098Z,11.85
2018-09-25T09:54:16.725Z,11.83
2018-09-25T09:56:50.658Z,11.84
2018-09-25T09:59:25.211Z,11.78
2018-09-25T10:01:59.160Z,11.75
2018-09-25T10:04:33.062Z,11.82
2018-09-25T10:07:07.083Z,11.86
2018-09-25T10:09:41.172Z,11.85
2018-09-25T10:12:15.115Z,11.92
2018-09-25T10:14:49.717Z,11.97
2018-09-25T10:17:24.763Z,11.96
2018-09-25T10:19:58.679Z,11.99
2018-09-25T10:22:33.661Z,12.00
2018-09-25T10:25:07.566Z,12.00
2018-09-25T10:27:43.016Z,12.03
2018-09-25T10:30:16.842Z,12.06
2018-09-25T10:32:50.756Z,12.12
2018-09-25T10:35:25.530Z,12.17
2018-09-25T10:37:59.589Z,12.15
2018-09-25T10:40:33.425Z,12.20
2018-09-25T10:43:08.823Z,12.23
2018-09-25T10:45:45.560Z,12.28
2018-09-25T10:48:21.032Z,12.39
2018-09-25T10:50:55.303Z,12.42
2018-09-25T10:53:29.826Z,12.43
2018-09-25T10:56:03.908Z,12.44
2018-09-25T10:58:38.354Z,12.43
2018-09-25T11:01:14.632Z,12.46
2018-09-25T11:03:49.470Z,12.54
2018-09-25T11:06:27.198Z,12.53
2018-09-25T11:09:41.957Z,12.55
2018-09-25T11:12:28.045Z,12.60
2018-09-25T11:15:06.645Z,12.64
2018-09-25T11:17:57.286Z,12.69
2018-09-25T11:20:36.369Z,12.74
2018-09-25T11:23:10.441Z,12.76
2018-09-25T11:25:45.164Z,12.79
2018-09-25T11:28:19.846Z,12.78
2018-09-25T11:30:53.998Z,12.74
2018-09-25T11:33:28.662Z,12.72
2018-09-25T11:36:02.584Z,12.74
2018-09-25T11:38:36.706Z,12.80
2018-09-25T11:41:11.526Z,12.86
2018-09-25T11:43:45.529Z,12.89
2018-09-25T11:46:23.349Z,12.94
2018-09-25T11:48:57.936Z,12.94
2018-09-25T11:51:32.340Z,12.98
2018-09-25T11:54:06.863Z,13.10
2018-09-25T11:56:40.760Z,13.16
2018-09-25T11:59:16.860Z,13.18
2018-09-25T12:01:51.327Z,13.24
2018-09-25T12:04:27.961Z,13.30
2018-09-25T12:07:01.897Z,13.38
2018-09-25T12:09:36.204Z,13.37
2018-09-25T12:14:49.843Z,13.36
2018-09-25T12:17:24.724Z,13.36
2018-09-25T12:19:58.698Z,13.37
2018-09-25T12:22:32.809Z,13.33
2018-09-25T12:25:06.687Z,13.35
2018-09-25T12:27:41.193Z,13.40
2018-09-25T12:30:15.396Z,13.41
2018-09-25T12:32:50.162Z,13.39
2018-09-25T12:35:25.233Z,13.42
2018-09-25T12:37:59.876Z,13.45
2018-09-25T12:40:33.862Z,13.46
2018-09-25T12:43:07.963Z,13.46
2018-09-25T12:45:41.865Z,13.59
2018-09-25T12:48:16.942Z,13.64
2018-09-25T12:50:51.719Z,13.61
2018-09-25T12:53:26.230Z,13.64
2018-09-25T12:56:00.270Z,13.75
2018-09-25T12:58:35.127Z,13.80
2018-09-25T13:01:10.353Z,13.79
2018-09-25T13:03:45.777Z,13.80
2018-09-25T13:06:19.841Z,13.80
2018-09-25T13:08:58.981Z,13.84
2018-09-25T13:11:34.191Z,13.90
2018-09-25T13:14:08.206Z,13.93
2018-09-25T13:16:42.048Z,13.89
2018-09-25T13:19:16.345Z,13.95
2018-09-25T13:21:50.206Z,14.02
2018-09-25T13:24:24.773Z,14.04
2018-09-25T13:26:59.888Z,14.05
2018-09-25T13:29:33.908Z,14.16
2018-09-25T13:32:07.809Z,14.21
2018-09-25T13:34:42.190Z,14.23
2018-09-25T13:37:17.498Z,14.28
2018-09-25T13:39:51.376Z,14.33
2018-09-25T13:42:25.980Z,14.45
2018-09-25T13:45:00.253Z,14.54
2018-09-25T13:47:36.692Z,14.59
2018-09-25T13:50:11.847Z,14.61
2018-09-25T13:55:27.417Z,14.55
2018-09-25T13:58:02.007Z,14.57
2018-09-25T14:00:36.373Z,14.63
2018-09-25T14:03:10.968Z,14.64
2018-09-25T14:05:45.645Z,14.66
2018-09-25T14:08:19.529Z,14.71
2018-09-25T14:10:53.803Z,14.73
2018-09-25T14:13:27.662Z,14.77
2018-09-25T14:16:02.427Z,14.80
2018-09-25T14:18:36.656Z,14.79
2018-09-25T14:21:16.701Z,14.75
2018-09-25T14:23:54.791Z,14.65
2018-09-25T14:26:30.256Z,14.58
2018-09-25T14:29:04.724Z,14.52
2018-09-25T14:31:38.539Z,14.43
2018-09-25T14:34:13.181Z,14.34
2018-09-25T14:36:47.128Z,14.29
2018-09-25T14:39:51.844Z,14.27
2018-09-25T14:42:25.836Z,14.28
2018-09-25T14:45:00.178Z,14.30
2018-09-25T14:47:34.200Z,14.30
2018-09-25T14:50:13.874Z,14.26
2018-09-25T14:52:49.402Z,14.20
2018-09-25T14:55:23.868Z,14.18
2018-09-25T14:57:58.572Z,14.17
2018-09-25T15:00:32.835Z,14.11
2018-09-25T15:03:06.833Z,14.13
2018-09-25T15:05:43.649Z,14.12
2018-09-25T15:08:17.474Z,14.10
2018-09-25T15:10:51.488Z,14.10
2018-09-25T15:13:25.606Z,14.08
2018-09-25T15:15:59.719Z,14.10
2018-09-25T15:18:34.652Z,14.05
2018-09-25T15:21:08.596Z,14.02
2018-09-25T15:23:42.623Z,13.98
2018-09-25T15:26:18.428Z,13.95
2018-09-25T15:28:53.635Z,13.91
2018-09-25T15:31:28.413Z,13.84
2018-09-25T15:34:03.146Z,13.78
2018-09-25T15:36:37.356Z,13.75
2018-09-25T15:39:14.100Z,13.71
2018-09-25T15:41:48.321Z,13.68
2018-09-25T15:44:22.441Z,13.58
2018-09-25T15:46:56.578Z,13.59
2018-09-25T15:49:32.044Z,13.56
2018-09-25T15:55:11.200Z,13.45
2018-09-25T15:57:46.228Z,13.40
2018-09-25T16:00:20.805Z,13.35
2018-09-25T16:02:54.718Z,13.27
2018-09-25T16:05:29.251Z,13.20
2018-09-25T16:08:03.278Z,13.15
2018-09-25T16:10:37.241Z,13.09
2018-09-25T16:13:11.113Z,13.03
2018-09-25T16:15:46.338Z,12.99
2018-09-25T16:18:20.287Z,12.95
2018-09-25T16:20:54.675Z,12.89
2018-09-25T16:23:28.653Z,12.83
2018-09-25T16:26:03.465Z,12.76
2018-09-25T16:28:38.846Z,12.69
2018-09-25T16:31:12.939Z,12.65
2018-09-25T16:33:48.302Z,12.58
2018-09-25T16:36:22.349Z,12.54
2018-09-25T16:38:56.332Z,12.48
2018-09-25T16:41:30.268Z,12.42
2018-09-25T16:44:04.417Z,12.34
2018-09-25T16:46:38.456Z,12.28
2018-09-25T16:49:13.517Z,12.22
2018-09-25T16:51:48.258Z,12.18
2018-09-25T16:54:22.261Z,12.15
2018-09-25T16:56:56.341Z,12.13
2018-09-25T16:59:30.784Z,12.10
2018-09-25T17:02:04.807Z,12.05
2018-09-25T17:04:39.453Z,12.02
2018-09-25T17:07:14.035Z,11.99
2018-09-25T17:09:49.152Z,11.98
2018-09-25T17:12:23.250Z,11.96
2018-09-25T17:14:57.264Z,11.93
2018-09-25T17:17:31.259Z,11.89
2018-09-25T17:20:05.414Z,11.87
2018-09-25T17:22:39.488Z,11.85
2018-09-25T17:25:14.281Z,11.83
2018-09-25T17:27:49.076Z,11.81
2018-09-25T17:30:24.105Z,11.82
2018-09-25T17:32:57.989Z,11.83
2018-09-25T17:35:32.891Z,11.82
2018-09-25T17:38:06.792Z,11.82
2018-09-25T17:40:40.796Z,11.81
2018-09-25T17:43:16.161Z,11.80
2018-09-25T17:45:50.241Z,11.80
2018-09-25T17:48:24.102Z,11.77
2018-09-25T17:50:59.377Z,11.77
2018-09-25T17:53:33.825Z,11.74
2018-09-25T17:56:07.903Z,11.70
2018-09-25T17:58:42.552Z,11.68
2018-09-25T18:01:17.153Z,11.63
2018-09-25T18:03:51.646Z,11.60
2018-09-25T18:06:26.746Z,11.58
2018-09-25T18:09:00.501Z,11.57
2018-09-25T18:11:34.467Z,11.55
2018-09-25T18:14:08.394Z,11.55
2018-09-25T18:16:42.983Z,11.53
2018-09-25T18:19:16.850Z,11.53
2018-09-25T18:21:50.749Z,11.53
2018-09-25T18:24:24.881Z,11.50
2018-09-25T18:26:59.778Z,11.48
2018-09-25T18:29:33.584Z,11.45
2018-09-25T18:32:07.613Z,11.44
2018-09-25T18:34:42.184Z,11.43
2018-09-25T18:37:17.013Z,11.42
2018-09-25T18:39:51.037Z,11.43
2018-09-25T18:42:24.848Z,11.44
2018-09-25T18:44:59.292Z,11.46
2018-09-25T18:47:33.147Z,11.45
2018-09-25T18:50:08.405Z,11.45
2018-09-25T18:52:43.155Z,11.43
2018-09-25T18:55:17.368Z,11.44
2018-09-25T18:57:52.185Z,11.43
2018-09-25T19:00:26.622Z,11.43
2018-09-25T19:03:00.483Z,11.44
2018-09-25T19:05:35.356Z,11.46
2018-09-25T19:08:09.344Z,11.45
2018-09-25T19:10:43.267Z,11.45
2018-09-25T19:13:17.174Z,11.45
2018-09-25T19:15:51.391Z,11.45
2018-09-25T19:18:28.344Z,11.45
2018-09-25T19:21:02.380Z,11.46
2018-09-25T19:23:37.179Z,11.50
2018-09-25T19:26:22.461Z,11.49
2018-09-25T19:28:59.677Z,11.50
2018-09-25T19:31:41.503Z,11.48
2018-09-25T19:37:47.958Z,11.51
2018-09-25T19:40:21.826Z,11.53
2018-09-25T19:42:55.668Z,11.58
2018-09-25T19:45:29.856Z,11.61
2018-09-25T19:48:03.816Z,11.62
2018-09-25T19:50:38.211Z,11.67
2018-09-25T19:53:13.331Z,11.65
2018-09-25T19:55:47.261Z,11.66
2018-09-25T19:58:21.884Z,11.65
2018-09-25T20:00:56.479Z,11.63
2018-09-25T20:03:30.427Z,11.59
2018-09-25T20:06:04.711Z,11.58
2018-09-25T20:08:38.512Z,11.60
2018-09-25T20:11:13.193Z,11.59
2018-09-25T20:13:48.181Z,11.60
2018-09-25T20:16:22.069Z,11.59
2018-09-25T20:18:55.971Z,11.59
2018-09-25T20:21:30.084Z,11.56
2018-09-25T20:24:05.937Z,11.57
2018-09-25T20:26:40.281Z,11.57
2018-09-25T20:29:15.546Z,11.57
2018-09-25T20:31:49.424Z,11.56
2018-09-25T20:34:23.637Z,11.55
2018-09-25T20:36:58.284Z,11.55
2018-09-25T20:39:32.259Z,11.56
2018-09-25T20:42:06.271Z,11.57
2018-09-25T20:44:40.280Z,11.57
2018-09-25T20:47:15.008Z,11.58
2018-09-25T20:49:49.893Z,11.57
2018-09-25T20:52:24.555Z,11.57
2018-09-25T20:54:58.425Z,11.61
2018-09-25T20:57:33.763Z,11.61
2018-09-25T21:00:08.127Z,11.63
2018-09-25T21:02:42.014Z,11.64
2018-09-25T21:05:16.918Z,11.65
2018-09-25T21:07:50.676Z,11.67
2018-09-25T21:10:24.668Z,11.68
2018-09-25T21:12:59.505Z,11.66
2018-09-25T21:15:33.338Z,11.67
2018-09-25T21:18:07.228Z,11.66
2018-09-25T21:20:41.222Z,11.62
2018-09-25T21:23:16.040Z,11.61
2018-09-25T21:25:51.291Z,11.58
2018-09-25T21:28:25.780Z,11.55
2018-09-25T21:30:59.798Z,11.51
2018-09-25T21:33:33.723Z,11.50
2018-09-25T21:36:08.069Z,11.45
2018-09-25T21:38:41.915Z,11.42
2018-09-25T21:41:16.141Z,11.38
2018-09-25T21:43:50.229Z,11.35
2018-09-25T21:46:25.159Z,11.30
2018-09-25T21:48:59.962Z,11.31
2018-09-25T21:51:34.103Z,11.32
2018-09-25T21:54:08.441Z,11.29
2018-09-25T21:56:42.423Z,11.30
2018-09-25T21:59:16.986Z,11.30
2018-09-25T22:01:50.776Z,11.31
2018-09-25T22:04:25.012Z,11.33
2018-09-25T22:06:59.657Z,11.34
2018-09-25T22:09:34.003Z,11.33
2018-09-25T22:12:07.871Z,11.33
2018-09-25T22:14:42.149Z,11.31
2018-09-25T22:17:16.302Z,11.30
2018-09-25T22:19:50.174Z,11.30
2018-09-25T22:22:24.457Z,11.28
2018-09-25T22:24:58.579Z,11.28
2018-09-25T22:27:32.933Z,11.30
2018-09-25T22:30:07.513Z,11.30
2018-09-25T22:32:41.699Z,11.30
2018-09-25T22:35:15.950Z,11.31
2018-09-25T22:37:49.796Z,11.32
2018-09-25T22:40:23.951Z,11.29
2018-09-25T22:42:57.839Z,11.28
2018-09-25T22:45:31.901Z,11.30
2018-09-25T22:48:05.832Z,11.30
2018-09-25T22:50:41.420Z,11.29
2018-09-25T22:53:16.125Z,11.30
2018-09-25T22:55:50.241Z,11.27
2018-09-25T22:58:24.778Z,11.27
2018-09-25T23:00:59.798Z,11.24
2018-09-25T23:03:33.711Z,11.21
2018-09-25T23:06:08.336Z,11.20
2018-09-25T23:08:42.157Z,11.16
2018-09-25T23:11:16.433Z,11.13
2018-09-25T23:13:50.197Z,11.10
2018-09-25T23:16:24.275Z,11.05
2018-09-25T23:18:58.201Z,11.06
2018-09-25T23:21:32.201Z,11.04
2018-09-25T23:24:06.213Z,11.05
2018-09-25T23:26:40.685Z,11.07
2018-09-25T23:29:14.930Z,11.09
2018-09-25T23:31:48.710Z,11.10
2018-09-25T23:34:23.793Z,11.14
2018-09-25T23:36:58.141Z,11.17
2018-09-25T23:39:49.771Z,11.21
2018-09-25T23:42:24.926Z,11.23
2018-09-25T23:44:58.868Z,11.29
2018-09-25T23:48:33.812Z,11.33
2018-09-25T23:51:06.957Z,11.39
2018-09-25T23:54:44.393Z,11.40
2018-09-25T23:57:18.691Z,11.47
2018-09-25T23:59:51.606Z,11.52
